Terminal Aerodrome Forecast
Issued by NWS

Home | Current Version | Previous Version | Text Only | Print | Product List | Glossary On
Versions: 1 2 3 4 5 6 7 8 9 10 11 12 13 14
544
FTUS45 KTFX 170520
TAFCTB
TAF
KCTB 170520Z 1706/1806 24020G30KT P6SM SKC WS020/26050KT
     FM170800 24018G28KT P6SM SCT140 BKN200
     FM171500 24030G40KT P6SM BKN140 BKN250 WS020/25050KT
      TEMPO 1723/1802 25035G50KT P6SM=

USA.gov is the U.S. government's official web portal to all federal, state and local government web resources and services.